sensor_id;sensor_type;location;lat;lon;timestamp;temperature;humidity
46882;DHT22;44112;38.408;-122.974;2022-09-09T00:06:24;34.00;39.20
46882;DHT22;44112;38.408;-122.974;2022-09-09T00:09:04;34.00;39.40
46882;DHT22;44112;38.408;-122.974;2022-09-09T00:11:53;34.00;39.60
46882;DHT22;44112;38.408;-122.974;2022-09-09T00:14:37;34.10;39.70
46882;DHT22;44112;38.408;-122.974;2022-09-09T00:17:12;34.00;39.50
46882;DHT22;44112;38.408;-122.974;2022-09-09T00:20:14;34.00;40.10
46882;DHT22;44112;38.408;-122.974;2022-09-09T00:26:07;33.90;39.80
46882;DHT22;44112;38.408;-122.974;2022-09-09T00:28:48;34.00;39.10
46882;DHT22;44112;38.408;-122.974;2022-09-09T00:31:25;34.00;39.40
46882;DHT22;44112;38.408;-122.974;2022-09-09T00:33:54;34.00;39.20
46882;DHT22;44112;38.408;-122.974;2022-09-09T00:36:26;34.00;39.40
46882;DHT22;44112;38.408;-122.974;2022-09-09T00:39:00;34.00;40.10
46882;DHT22;44112;38.408;-122.974;2022-09-09T00:52:27;33.90;40.20
46882;DHT22;44112;38.408;-122.974;2022-09-09T00:55:12;33.90;40.70
46882;DHT22;44112;38.408;-122.974;2022-09-09T00:57:42;33.80;40.70
46882;DHT22;44112;38.408;-122.974;2022-09-09T01:00:27;33.80;40.40
46882;DHT22;44112;38.408;-122.974;2022-09-09T01:14:49;33.80;40.50
46882;DHT22;44112;38.408;-122.974;2022-09-09T01:17:24;32.90;42.80
46882;DHT22;44112;38.408;-122.974;2022-09-09T01:25:22;33.40;40.30
46882;DHT22;44112;38.408;-122.974;2022-09-09T01:28:03;33.50;39.90
46882;DHT22;44112;38.408;-122.974;2022-09-09T01:30:37;33.50;40.20
46882;DHT22;44112;38.408;-122.974;2022-09-09T01:33:04;33.50;39.80
46882;DHT22;44112;38.408;-122.974;2022-09-09T01:38:24;33.50;38.70
46882;DHT22;44112;38.408;-122.974;2022-09-09T01:40:52;33.40;38.90
46882;DHT22;44112;38.408;-122.974;2022-09-09T01:43:21;33.40;38.70
46882;DHT22;44112;38.408;-122.974;2022-09-09T01:45:50;33.30;38.30
46882;DHT22;44112;38.408;-122.974;2022-09-09T01:48:21;33.30;38.40
46882;DHT22;44112;38.408;-122.974;2022-09-09T01:50:48;33.20;38.20
46882;DHT22;44112;38.408;-122.974;2022-09-09T01:53:17;32.90;41.30
46882;DHT22;44112;38.408;-122.974;2022-09-09T01:56:03;32.70;42.00
46882;DHT22;44112;38.408;-122.974;2022-09-09T01:58:46;32.60;41.70
46882;DHT22;44112;38.408;-122.974;2022-09-09T02:03:52;32.80;41.00
46882;DHT22;44112;38.408;-122.974;2022-09-09T02:06:37;32.80;41.20
46882;DHT22;44112;38.408;-122.974;2022-09-09T02:09:10;32.90;41.30
46882;DHT22;44112;38.408;-122.974;2022-09-09T02:11:39;33.00;40.60
46882;DHT22;44112;38.408;-122.974;2022-09-09T02:14:10;33.00;40.50
46882;DHT22;44112;38.408;-122.974;2022-09-09T02:16:42;33.00;40.50
46882;DHT22;44112;38.408;-122.974;2022-09-09T02:19:34;33.00;40.70
46882;DHT22;44112;38.408;-122.974;2022-09-09T02:22:03;33.00;40.40
46882;DHT22;44112;38.408;-122.974;2022-09-09T02:24:32;33.00;39.70
46882;DHT22;44112;38.408;-122.974;2022-09-09T02:27:02;33.00;40.00
46882;DHT22;44112;38.408;-122.974;2022-09-09T02:29:34;32.90;40.50
46882;DHT22;44112;38.408;-122.974;2022-09-09T02:32:05;32.80;40.00
46882;DHT22;44112;38.408;-122.974;2022-09-09T02:34:35;32.80;40.40
46882;DHT22;44112;38.408;-122.974;2022-09-09T02:37:04;32.70;39.90
46882;DHT22;44112;38.408;-122.974;2022-09-09T02:39:32;32.70;39.40
46882;DHT22;44112;38.408;-122.974;2022-09-09T02:41:59;32.70;39.70
46882;DHT22;44112;38.408;-122.974;2022-09-09T02:44:25;32.60;39.30
46882;DHT22;44112;38.408;-122.974;2022-09-09T02:52:47;32.20;41.10
46882;DHT22;44112;38.408;-122.974;2022-09-09T02:57:51;32.30;40.30
46882;DHT22;44112;38.408;-122.974;2022-09-09T03:00:24;32.40;40.40
46882;DHT22;44112;38.408;-122.974;2022-09-09T03:02:50;32.40;39.30
46882;DHT22;44112;38.408;-122.974;2022-09-09T03:05:17;32.50;39.10
46882;DHT22;44112;38.408;-122.974;2022-09-09T03:07:43;32.50;38.80
46882;DHT22;44112;38.408;-122.974;2022-09-09T03:10:10;32.50;38.80
46882;DHT22;44112;38.408;-122.974;2022-09-09T03:12:36;32.50;39.40
46882;DHT22;44112;38.408;-122.974;2022-09-09T03:15:03;32.40;38.90
46882;DHT22;44112;38.408;-122.974;2022-09-09T03:17:29;32.50;38.90
46882;DHT22;44112;38.408;-122.974;2022-09-09T03:19:56;32.50;38.50
46882;DHT22;44112;38.408;-122.974;2022-09-09T03:22:23;32.50;38.40
46882;DHT22;44112;38.408;-122.974;2022-09-09T03:24:51;32.50;38.40
46882;DHT22;44112;38.408;-122.974;2022-09-09T03:27:18;32.50;38.30
46882;DHT22;44112;38.408;-122.974;2022-09-09T03:29:46;32.50;38.30
46882;DHT22;44112;38.408;-122.974;2022-09-09T03:32:13;32.40;38.80
46882;DHT22;44112;38.408;-122.974;2022-09-09T03:34:43;32.30;38.60
46882;DHT22;44112;38.408;-122.974;2022-09-09T03:37:10;32.20;38.60
46882;DHT22;44112;38.408;-122.974;2022-09-09T03:39:37;32.20;38.60
46882;DHT22;44112;38.408;-122.974;2022-09-09T03:42:04;32.10;38.60
46882;DHT22;44112;38.408;-122.974;2022-09-09T03:44:31;32.10;38.80
46882;DHT22;44112;38.408;-122.974;2022-09-09T03:46:57;32.10;38.40
46882;DHT22;44112;38.408;-122.974;2022-09-09T03:49:27;32.10;38.40
46882;DHT22;44112;38.408;-122.974;2022-09-09T03:51:57;32.10;38.30
46882;DHT22;44112;38.408;-122.974;2022-09-09T03:54:25;32.20;38.10
46882;DHT22;44112;38.408;-122.974;2022-09-09T03:56:51;32.20;38.10
46882;DHT22;44112;38.408;-122.974;2022-09-09T03:59:18;32.20;38.10
46882;DHT22;44112;38.408;-122.974;2022-09-09T04:01:45;32.20;38.10
46882;DHT22;44112;38.408;-122.974;2022-09-09T04:04:12;32.20;38.10
46882;DHT22;44112;38.408;-122.974;2022-09-09T04:06:39;32.10;38.00
46882;DHT22;44112;38.408;-122.974;2022-09-09T04:09:05;32.10;38.00
46882;DHT22;44112;38.408;-122.974;2022-09-09T04:11:31;32.10;38.00
46882;DHT22;44112;38.408;-122.974;2022-09-09T04:13:58;32.10;38.00
46882;DHT22;44112;38.408;-122.974;2022-09-09T04:16:24;32.10;38.00
46882;DHT22;44112;38.408;-122.974;2022-09-09T04:18:51;32.00;38.00
46882;DHT22;44112;38.408;-122.974;2022-09-09T04:21:19;31.90;37.90
46882;DHT22;44112;38.408;-122.974;2022-09-09T04:23:45;31.90;37.80
46882;DHT22;44112;38.408;-122.974;2022-09-09T04:26:11;31.80;38.00
46882;DHT22;44112;38.408;-122.974;2022-09-09T04:28:38;31.70;38.10
46882;DHT22;44112;38.408;-122.974;2022-09-09T04:31:06;31.70;37.70
46882;DHT22;44112;38.408;-122.974;2022-09-09T04:33:33;31.80;37.70
46882;DHT22;44112;38.408;-122.974;2022-09-09T04:36:00;31.80;37.70
46882;DHT22;44112;38.408;-122.974;2022-09-09T04:38:27;31.80;37.70
46882;DHT22;44112;38.408;-122.974;2022-09-09T04:40:53;31.80;37.60
46882;DHT22;44112;38.408;-122.974;2022-09-09T04:43:20;31.80;37.60
46882;DHT22;44112;38.408;-122.974;2022-09-09T04:45:48;31.80;37.80
46882;DHT22;44112;38.408;-122.974;2022-09-09T04:48:15;31.80;37.50
46882;DHT22;44112;38.408;-122.974;2022-09-09T04:50:42;31.70;37.50
46882;DHT22;44112;38.408;-122.974;2022-09-09T04:53:09;31.70;37.50
46882;DHT22;44112;38.408;-122.974;2022-09-09T04:55:35;31.70;37.50
46882;DHT22;44112;38.408;-122.974;2022-09-09T04:58:06;31.70;37.50
46882;DHT22;44112;38.408;-122.974;2022-09-09T05:00:34;31.70;37.50
46882;DHT22;44112;38.408;-122.974;2022-09-09T05:03:07;31.60;37.20
46882;DHT22;44112;38.408;-122.974;2022-09-09T05:05:38;31.60;37.20
46882;DHT22;44112;38.408;-122.974;2022-09-09T05:08:07;31.60;37.20
46882;DHT22;44112;38.408;-122.974;2022-09-09T05:10:37;31.50;37.20
46882;DHT22;44112;38.408;-122.974;2022-09-09T05:13:04;31.50;37.10
46882;DHT22;44112;38.408;-122.974;2022-09-09T05:15:31;31.50;37.10
46882;DHT22;44112;38.408;-122.974;2022-09-09T05:18:01;31.50;37.30
46882;DHT22;44112;38.408;-122.974;2022-09-09T05:20:28;31.40;37.40
46882;DHT22;44112;38.408;-122.974;2022-09-09T05:22:56;31.40;37.40
46882;DHT22;44112;38.408;-122.974;2022-09-09T05:25:23;31.40;37.40
46882;DHT22;44112;38.408;-122.974;2022-09-09T05:27:51;31.40;37.40
46882;DHT22;44112;38.408;-122.974;2022-09-09T05:30:21;31.40;37.40
46882;DHT22;44112;38.408;-122.974;2022-09-09T05:32:48;31.40;37.50
46882;DHT22;44112;38.408;-122.974;2022-09-09T05:35:16;31.40;37.50
46882;DHT22;44112;38.408;-122.974;2022-09-09T05:37:45;31.30;38.10
46882;DHT22;44112;38.408;-122.974;2022-09-09T05:40:11;31.30;37.50
46882;DHT22;44112;38.408;-122.974;2022-09-09T05:42:38;31.30;37.50
46882;DHT22;44112;38.408;-122.974;2022-09-09T05:45:06;31.20;37.40
46882;DHT22;44112;38.408;-122.974;2022-09-09T05:47:34;31.20;37.40
46882;DHT22;44112;38.408;-122.974;2022-09-09T05:50:01;31.10;37.30
46882;DHT22;44112;38.408;-122.974;2022-09-09T05:52:28;31.10;37.30
46882;DHT22;44112;38.408;-122.974;2022-09-09T05:54:54;31.10;37.30
46882;DHT22;44112;38.408;-122.974;2022-09-09T05:57:23;31.10;37.30
46882;DHT22;44112;38.408;-122.974;2022-09-09T05:59:51;31.10;37.50
46882;DHT22;44112;38.408;-122.974;2022-09-09T06:02:17;31.00;37.50
46882;DHT22;44112;38.408;-122.974;2022-09-09T06:04:43;31.00;37.50
46882;DHT22;44112;38.408;-122.974;2022-09-09T06:07:10;31.00;37.60
46882;DHT22;44112;38.408;-122.974;2022-09-09T06:09:40;31.00;37.60
46882;DHT22;44112;38.408;-122.974;2022-09-09T06:12:07;31.00;37.60
46882;DHT22;44112;38.408;-122.974;2022-09-09T06:14:34;30.90;37.60
46882;DHT22;44112;38.408;-122.974;2022-09-09T06:17:00;30.90;38.00
46882;DHT22;44112;38.408;-122.974;2022-09-09T06:19:28;30.80;37.80
46882;DHT22;44112;38.408;-122.974;2022-09-09T06:21:56;30.80;38.30
46882;DHT22;44112;38.408;-122.974;2022-09-09T06:24:23;30.70;38.60
46882;DHT22;44112;38.408;-122.974;2022-09-09T06:26:50;30.80;41.10
46882;DHT22;44112;38.408;-122.974;2022-09-09T06:29:18;30.80;40.80
46882;DHT22;44112;38.408;-122.974;2022-09-09T06:31:45;30.80;41.20
46882;DHT22;44112;38.408;-122.974;2022-09-09T06:34:13;30.70;41.50
46882;DHT22;44112;38.408;-122.974;2022-09-09T06:36:40;30.70;43.80
46882;DHT22;44112;38.408;-122.974;2022-09-09T06:39:07;30.40;44.10
46882;DHT22;44112;38.408;-122.974;2022-09-09T06:41:36;30.20;45.80
46882;DHT22;44112;38.408;-122.974;2022-09-09T06:44:04;30.00;45.40
46882;DHT22;44112;38.408;-122.974;2022-09-09T06:46:31;29.90;45.80
46882;DHT22;44112;38.408;-122.974;2022-09-09T06:48:59;29.80;43.90
46882;DHT22;44112;38.408;-122.974;2022-09-09T06:51:36;29.90;44.30
46882;DHT22;44112;38.408;-122.974;2022-09-09T06:54:08;29.90;44.40
46882;DHT22;44112;38.408;-122.974;2022-09-09T06:56:37;29.80;44.70
46882;DHT22;44112;38.408;-122.974;2022-09-09T06:59:07;29.80;43.00
46882;DHT22;44112;38.408;-122.974;2022-09-09T07:01:37;29.80;44.80
46882;DHT22;44112;38.408;-122.974;2022-09-09T07:04:04;29.80;42.90
46882;DHT22;44112;38.408;-122.974;2022-09-09T07:06:38;29.70;43.60
46882;DHT22;44112;38.408;-122.974;2022-09-09T07:09:07;29.80;41.50
46882;DHT22;44112;38.408;-122.974;2022-09-09T07:11:38;29.90;41.60
46882;DHT22;44112;38.408;-122.974;2022-09-09T07:14:04;29.80;42.30
46882;DHT22;44112;38.408;-122.974;2022-09-09T07:16:31;29.90;41.60
46882;DHT22;44112;38.408;-122.974;2022-09-09T07:18:59;29.70;41.30
46882;DHT22;44112;38.408;-122.974;2022-09-09T07:21:28;29.70;41.50
46882;DHT22;44112;38.408;-122.974;2022-09-09T07:23:55;29.80;41.30
46882;DHT22;44112;38.408;-122.974;2022-09-09T07:26:24;29.80;41.20
46882;DHT22;44112;38.408;-122.974;2022-09-09T07:28:51;29.90;40.60
46882;DHT22;44112;38.408;-122.974;2022-09-09T07:31:20;29.90;40.10
46882;DHT22;44112;38.408;-122.974;2022-09-09T07:33:47;29.90;39.90
46882;DHT22;44112;38.408;-122.974;2022-09-09T07:36:31;30.00;40.20
46882;DHT22;44112;38.408;-122.974;2022-09-09T07:39:04;30.10;40.00
46882;DHT22;44112;38.408;-122.974;2022-09-09T07:41:36;30.10;40.10
46882;DHT22;44112;38.408;-122.974;2022-09-09T07:44:14;30.10;40.00
46882;DHT22;44112;38.408;-122.974;2022-09-09T07:46:41;30.10;40.00
46882;DHT22;44112;38.408;-122.974;2022-09-09T07:49:09;30.10;39.80
46882;DHT22;44112;38.408;-122.974;2022-09-09T07:51:38;30.10;39.90
46882;DHT22;44112;38.408;-122.974;2022-09-09T07:54:09;30.10;39.80
46882;DHT22;44112;38.408;-122.974;2022-09-09T07:56:36;30.10;39.70
46882;DHT22;44112;38.408;-122.974;2022-09-09T07:59:03;30.10;39.50
46882;DHT22;44112;38.408;-122.974;2022-09-09T08:01:37;30.10;39.50
46882;DHT22;44112;38.408;-122.974;2022-09-09T08:04:10;30.10;39.30
46882;DHT22;44112;38.408;-122.974;2022-09-09T08:06:47;30.10;39.30
46882;DHT22;44112;38.408;-122.974;2022-09-09T08:09:14;30.10;39.20
46882;DHT22;44112;38.408;-122.974;2022-09-09T08:11:42;30.10;39.20
46882;DHT22;44112;38.408;-122.974;2022-09-09T08:14:10;30.10;39.20
46882;DHT22;44112;38.408;-122.974;2022-09-09T08:16:40;30.10;39.10
46882;DHT22;44112;38.408;-122.974;2022-09-09T08:19:07;30.10;39.10
46882;DHT22;44112;38.408;-122.974;2022-09-09T08:21:37;30.10;39.10
46882;DHT22;44112;38.408;-122.974;2022-09-09T08:24:05;30.10;38.90
46882;DHT22;44112;38.408;-122.974;2022-09-09T08:26:35;30.10;39.00
46882;DHT22;44112;38.408;-122.974;2022-09-09T08:29:03;30.10;39.00
46882;DHT22;44112;38.408;-122.974;2022-09-09T08:31:36;30.10;39.10
46882;DHT22;44112;38.408;-122.974;2022-09-09T08:34:04;30.10;39.00
46882;DHT22;44112;38.408;-122.974;2022-09-09T08:36:35;30.00;39.00
46882;DHT22;44112;38.408;-122.974;2022-09-09T08:39:04;30.00;38.90
46882;DHT22;44112;38.408;-122.974;2022-09-09T08:52:51;29.90;38.70
46882;DHT22;44112;38.408;-122.974;2022-09-09T08:58:21;29.80;39.10
46882;DHT22;44112;38.408;-122.974;2022-09-09T09:00:55;29.70;39.30
46882;DHT22;44112;38.408;-122.974;2022-09-09T09:06:39;29.70;38.90
46882;DHT22;44112;38.408;-122.974;2022-09-09T09:11:58;29.60;39.60
46882;DHT22;44112;38.408;-122.974;2022-09-09T09:14:31;29.60;40.10
46882;DHT22;44112;38.408;-122.974;2022-09-09T09:17:06;29.60;40.20
46882;DHT22;44112;38.408;-122.974;2022-09-09T09:19:39;29.60;40.40
46882;DHT22;44112;38.408;-122.974;2022-09-09T09:27:49;29.60;40.10
46882;DHT22;44112;38.408;-122.974;2022-09-09T09:30:23;29.60;40.00
46882;DHT22;44112;38.408;-122.974;2022-09-09T09:35:20;29.60;39.90
46882;DHT22;44112;38.408;-122.974;2022-09-09T09:37:47;29.60;39.90
46882;DHT22;44112;38.408;-122.974;2022-09-09T09:40:17;29.60;39.80
46882;DHT22;44112;38.408;-122.974;2022-09-09T09:42:58;29.50;39.80
46882;DHT22;44112;38.408;-122.974;2022-09-09T09:45:42;29.50;39.70
46882;DHT22;44112;38.408;-122.974;2022-09-09T09:48:13;29.50;39.60
46882;DHT22;44112;38.408;-122.974;2022-09-09T09:50:58;29.50;39.60
46882;DHT22;44112;38.408;-122.974;2022-09-09T09:53:30;29.50;39.50
46882;DHT22;44112;38.408;-122.974;2022-09-09T09:56:01;29.50;39.40
46882;DHT22;44112;38.408;-122.974;2022-09-09T09:58:48;29.50;39.50
46882;DHT22;44112;38.408;-122.974;2022-09-09T10:01:32;29.50;39.40
46882;DHT22;44112;38.408;-122.974;2022-09-09T10:04:22;29.50;39.30
46882;DHT22;44112;38.408;-122.974;2022-09-09T10:06:52;29.40;39.10
46882;DHT22;44112;38.408;-122.974;2022-09-09T10:09:28;29.50;39.00
46882;DHT22;44112;38.408;-122.974;2022-09-09T10:14:58;29.50;38.90
46882;DHT22;44112;38.408;-122.974;2022-09-09T10:22:52;29.40;38.70
46882;DHT22;44112;38.408;-122.974;2022-09-09T10:33:59;29.30;38.60
46882;DHT22;44112;38.408;-122.974;2022-09-09T10:36:27;29.30;38.60
46882;DHT22;44112;38.408;-122.974;2022-09-09T10:42:07;29.30;38.30
46882;DHT22;44112;38.408;-122.974;2022-09-09T10:50:47;29.30;38.70
46882;DHT22;44112;38.408;-122.974;2022-09-09T10:56:08;29.30;38.10
46882;DHT22;44112;38.408;-122.974;2022-09-09T10:58:48;29.30;38.20
46882;DHT22;44112;38.408;-122.974;2022-09-09T11:04:26;29.30;38.20
46882;DHT22;44112;38.408;-122.974;2022-09-09T11:06:55;29.30;38.20
46882;DHT22;44112;38.408;-122.974;2022-09-09T11:09:28;29.30;38.20
46882;DHT22;44112;38.408;-122.974;2022-09-09T11:11:58;29.20;38.20
46882;DHT22;44112;38.408;-122.974;2022-09-09T11:14:45;29.20;38.30
46882;DHT22;44112;38.408;-122.974;2022-09-09T11:17:21;29.20;38.30
46882;DHT22;44112;38.408;-122.974;2022-09-09T11:19:50;29.20;38.20
46882;DHT22;44112;38.408;-122.974;2022-09-09T11:22:27;29.20;38.10
46882;DHT22;44112;38.408;-122.974;2022-09-09T11:41:53;29.30;38.00
46882;DHT22;44112;38.408;-122.974;2022-09-09T11:44:28;29.20;38.10
46882;DHT22;44112;38.408;-122.974;2022-09-09T11:46:56;29.20;38.10
46882;DHT22;44112;38.408;-122.974;2022-09-09T11:49:28;29.10;38.10
46882;DHT22;44112;38.408;-122.974;2022-09-09T11:51:57;29.10;38.20
46882;DHT22;44112;38.408;-122.974;2022-09-09T11:54:34;29.10;38.30
46882;DHT22;44112;38.408;-122.974;2022-09-09T11:57:39;29.00;38.30
46882;DHT22;44112;38.408;-122.974;2022-09-09T12:00:27;29.10;38.20
46882;DHT22;44112;38.408;-122.974;2022-09-09T12:02:53;29.00;37.90
46882;DHT22;44112;38.408;-122.974;2022-09-09T12:05:20;29.10;37.90
46882;DHT22;44112;38.408;-122.974;2022-09-09T12:10:40;29.10;37.80
46882;DHT22;44112;38.408;-122.974;2022-09-09T12:13:19;29.10;37.80
46882;DHT22;44112;38.408;-122.974;2022-09-09T12:15:56;29.10;37.60
46882;DHT22;44112;38.408;-122.974;2022-09-09T12:18:33;29.20;37.70
46882;DHT22;44112;38.408;-122.974;2022-09-09T12:21:28;29.20;37.60
46882;DHT22;44112;38.408;-122.974;2022-09-09T12:24:13;29.10;37.70
46882;DHT22;44112;38.408;-122.974;2022-09-09T12:27:05;29.10;37.80
46882;DHT22;44112;38.408;-122.974;2022-09-09T12:30:39;29.00;38.00
46882;DHT22;44112;38.408;-122.974;2022-09-09T12:32:34;29.00;38.10
46882;DHT22;44112;38.408;-122.974;2022-09-09T12:35:09;29.00;38.10
46882;DHT22;44112;38.408;-122.974;2022-09-09T12:37:58;28.90;38.10
46882;DHT22;44112;38.408;-122.974;2022-09-09T12:40:31;28.90;37.90
46882;DHT22;44112;38.408;-122.974;2022-09-09T12:43:19;28.90;37.70
46882;DHT22;44112;38.408;-122.974;2022-09-09T12:45:49;28.90;37.60
46882;DHT22;44112;38.408;-122.974;2022-09-09T12:48:33;28.90;37.50
46882;DHT22;44112;38.408;-122.974;2022-09-09T12:51:00;29.00;37.40
46882;DHT22;44112;38.408;-122.974;2022-09-09T12:53:35;29.00;37.40
46882;DHT22;44112;38.408;-122.974;2022-09-09T12:56:06;28.90;37.20
46882;DHT22;44112;38.408;-122.974;2022-09-09T12:58:35;29.00;37.10
46882;DHT22;44112;38.408;-122.974;2022-09-09T13:01:03;29.00;37.20
46882;DHT22;44112;38.408;-122.974;2022-09-09T13:03:42;29.00;37.20
46882;DHT22;44112;38.408;-122.974;2022-09-09T13:06:16;28.90;37.20
46882;DHT22;44112;38.408;-122.974;2022-09-09T13:08:45;28.90;37.40
46882;DHT22;44112;38.408;-122.974;2022-09-09T13:11:16;28.80;37.50
46882;DHT22;44112;38.408;-122.974;2022-09-09T13:13:50;28.80;37.50
46882;DHT22;44112;38.408;-122.974;2022-09-09T13:16:26;28.80;37.50
46882;DHT22;44112;38.408;-122.974;2022-09-09T13:19:16;28.80;37.30
46882;DHT22;44112;38.408;-122.974;2022-09-09T13:21:43;28.90;37.20
46882;DHT22;44112;38.408;-122.974;2022-09-09T13:24:31;28.90;37.10
46882;DHT22;44112;38.408;-122.974;2022-09-09T13:27:03;28.90;36.90
46882;DHT22;44112;38.408;-122.974;2022-09-09T13:29:32;28.90;37.10
46882;DHT22;44112;38.408;-122.974;2022-09-09T13:32:16;28.90;36.90
46882;DHT22;44112;38.408;-122.974;2022-09-09T13:34:54;28.90;36.80
46882;DHT22;44112;38.408;-122.974;2022-09-09T13:37:33;28.90;36.80
46882;DHT22;44112;38.408;-122.974;2022-09-09T13:40:01;28.90;36.80
46882;DHT22;44112;38.408;-122.974;2022-09-09T13:42:30;28.80;36.70
46882;DHT22;44112;38.408;-122.974;2022-09-09T13:45:00;28.80;36.90
46882;DHT22;44112;38.408;-122.974;2022-09-09T13:47:35;28.80;36.90
46882;DHT22;44112;38.408;-122.974;2022-09-09T13:52:52;28.70;37.70
46882;DHT22;44112;38.408;-122.974;2022-09-09T13:55:21;28.70;37.20
46882;DHT22;44112;38.408;-122.974;2022-09-09T13:57:56;28.70;36.90
46882;DHT22;44112;38.408;-122.974;2022-09-09T14:00:24;28.70;36.90
46882;DHT22;44112;38.408;-122.974;2022-09-09T14:02:51;28.80;36.70
46882;DHT22;44112;38.408;-122.974;2022-09-09T14:05:21;28.80;36.70
46882;DHT22;44112;38.408;-122.974;2022-09-09T14:07:49;28.70;36.60
46882;DHT22;44112;38.408;-122.974;2022-09-09T14:10:16;28.80;36.60
46882;DHT22;44112;38.408;-122.974;2022-09-09T14:12:43;28.80;36.60
46882;DHT22;44112;38.408;-122.974;2022-09-09T14:15:11;28.80;36.60
46882;DHT22;44112;38.408;-122.974;2022-09-09T14:17:38;28.80;36.70
46882;DHT22;44112;38.408;-122.974;2022-09-09T14:20:06;28.70;36.70
46882;DHT22;44112;38.408;-122.974;2022-09-09T14:22:36;28.70;36.80
46882;DHT22;44112;38.408;-122.974;2022-09-09T14:25:05;28.70;36.80
46882;DHT22;44112;38.408;-122.974;2022-09-09T14:27:32;28.60;36.80
46882;DHT22;44112;38.408;-122.974;2022-09-09T14:29:59;28.60;36.90
46882;DHT22;44112;38.408;-122.974;2022-09-09T14:32:26;28.60;37.00
46882;DHT22;44112;38.408;-122.974;2022-09-09T14:34:53;28.60;36.80
46882;DHT22;44112;38.408;-122.974;2022-09-09T14:37:20;28.60;36.90
46882;DHT22;44112;38.408;-122.974;2022-09-09T14:39:47;28.60;36.70
46882;DHT22;44112;38.408;-122.974;2022-09-09T14:42:16;28.70;36.50
46882;DHT22;44112;38.408;-122.974;2022-09-09T14:44:43;28.60;36.60
46882;DHT22;44112;38.408;-122.974;2022-09-09T14:47:09;28.70;36.60
46882;DHT22;44112;38.408;-122.974;2022-09-09T14:49:36;28.60;36.40
46882;DHT22;44112;38.408;-122.974;2022-09-09T14:52:04;28.60;36.50
46882;DHT22;44112;38.408;-122.974;2022-09-09T14:54:32;28.70;36.60
46882;DHT22;44112;38.408;-122.974;2022-09-09T14:56:59;28.60;36.50
46882;DHT22;44112;38.408;-122.974;2022-09-09T14:59:25;28.60;36.50
46882;DHT22;44112;38.408;-122.974;2022-09-09T15:01:53;28.60;36.50
46882;DHT22;44112;38.408;-122.974;2022-09-09T15:04:19;28.60;36.60
46882;DHT22;44112;38.408;-122.974;2022-09-09T15:06:46;28.50;36.60
46882;DHT22;44112;38.408;-122.974;2022-09-09T15:09:14;28.60;36.80
46882;DHT22;44112;38.408;-122.974;2022-09-09T15:11:41;28.50;36.80
46882;DHT22;44112;38.408;-122.974;2022-09-09T15:14:09;28.50;36.60
46882;DHT22;44112;38.408;-122.974;2022-09-09T15:16:36;28.50;36.60
46882;DHT22;44112;38.408;-122.974;2022-09-09T15:19:03;28.50;36.40
46882;DHT22;44112;38.408;-122.974;2022-09-09T15:21:33;28.60;36.50
46882;DHT22;44112;38.408;-122.974;2022-09-09T15:24:00;28.50;36.40
46882;DHT22;44112;38.408;-122.974;2022-09-09T15:26:28;28.60;36.50
46882;DHT22;44112;38.408;-122.974;2022-09-09T15:28:56;28.60;36.40
46882;DHT22;44112;38.408;-122.974;2022-09-09T15:31:27;28.50;36.50
46882;DHT22;44112;38.408;-122.974;2022-09-09T15:33:56;28.60;36.50
46882;DHT22;44112;38.408;-122.974;2022-09-09T15:36:47;28.60;36.60
46882;DHT22;44112;38.408;-122.974;2022-09-09T15:39:17;28.50;36.50
46882;DHT22;44112;38.408;-122.974;2022-09-09T15:41:45;28.50;36.80
46882;DHT22;44112;38.408;-122.974;2022-09-09T15:44:13;28.40;36.80
46882;DHT22;44112;38.408;-122.974;2022-09-09T15:46:42;28.50;36.80
46882;DHT22;44112;38.408;-122.974;2022-09-09T15:49:11;28.40;37.50
46882;DHT22;44112;38.408;-122.974;2022-09-09T15:51:44;28.40;36.80
46882;DHT22;44112;38.408;-122.974;2022-09-09T15:54:13;28.40;36.90
46882;DHT22;44112;38.408;-122.974;2022-09-09T15:56:40;28.50;36.90
46882;DHT22;44112;38.408;-122.974;2022-09-09T15:59:07;28.50;36.80
46882;DHT22;44112;38.408;-122.974;2022-09-09T16:01:34;28.50;36.80
46882;DHT22;44112;38.408;-122.974;2022-09-09T16:04:01;28.50;36.80
46882;DHT22;44112;38.408;-122.974;2022-09-09T16:06:28;28.50;36.90
46882;DHT22;44112;38.408;-122.974;2022-09-09T16:08:57;28.50;36.80
46882;DHT22;44112;38.408;-122.974;2022-09-09T16:11:29;28.50;36.80
46882;DHT22;44112;38.408;-122.974;2022-09-09T16:13:57;28.50;36.80
46882;DHT22;44112;38.408;-122.974;2022-09-09T16:16:27;28.50;36.90
46882;DHT22;44112;38.408;-122.974;2022-09-09T16:18:55;28.40;37.10
46882;DHT22;44112;38.408;-122.974;2022-09-09T16:21:28;28.40;37.10
46882;DHT22;44112;38.408;-122.974;2022-09-09T16:23:56;28.40;37.10
46882;DHT22;44112;38.408;-122.974;2022-09-09T16:26:23;28.40;37.30
46882;DHT22;44112;38.408;-122.974;2022-09-09T16:28:52;28.40;37.20
46882;DHT22;44112;38.408;-122.974;2022-09-09T16:31:23;28.40;37.50
46882;DHT22;44112;38.408;-122.974;2022-09-09T16:33:50;28.40;37.50
46882;DHT22;44112;38.408;-122.974;2022-09-09T16:36:20;28.50;37.50
46882;DHT22;44112;38.408;-122.974;2022-09-09T16:38:47;28.50;37.50
46882;DHT22;44112;38.408;-122.974;2022-09-09T16:41:14;28.50;37.60
46882;DHT22;44112;38.408;-122.974;2022-09-09T16:43:41;28.50;37.60
46882;DHT22;44112;38.408;-122.974;2022-09-09T16:46:17;28.50;37.50
46882;DHT22;44112;38.408;-122.974;2022-09-09T16:48:45;28.50;37.60
46882;DHT22;44112;38.408;-122.974;2022-09-09T16:51:18;28.50;37.70
46882;DHT22;44112;38.408;-122.974;2022-09-09T16:53:46;28.50;37.80
46882;DHT22;44112;38.408;-122.974;2022-09-09T16:56:17;28.40;37.80
46882;DHT22;44112;38.408;-122.974;2022-09-09T16:58:50;28.40;37.90
46882;DHT22;44112;38.408;-122.974;2022-09-09T17:01:16;28.40;38.00
46882;DHT22;44112;38.408;-122.974;2022-09-09T17:03:43;28.40;38.10
46882;DHT22;44112;38.408;-122.974;2022-09-09T17:06:10;28.40;38.20
46882;DHT22;44112;38.408;-122.974;2022-09-09T17:08:38;28.40;38.20
46882;DHT22;44112;38.408;-122.974;2022-09-09T17:11:18;28.40;38.10
46882;DHT22;44112;38.408;-122.974;2022-09-09T17:13:46;28.50;38.80
46882;DHT22;44112;38.408;-122.974;2022-09-09T17:16:15;28.50;38.20
46882;DHT22;44112;38.408;-122.974;2022-09-09T17:18:43;28.50;38.20
46882;DHT22;44112;38.408;-122.974;2022-09-09T17:21:13;28.60;38.30
46882;DHT22;44112;38.408;-122.974;2022-09-09T17:23:41;28.50;38.30